Terminal Aerodrome Forecast
Issued by NWS

Home | Current Version | Previous Version | Text Only | Print | Product List | Glossary On
Versions: 1 2 3 4 5 6 7 8 9 10 11 12 13 14 15 16 17 18 19 20 21 22 23 24
000
FTUS42 TJSJ 211144
TAFKPK
TAF
TKPK 211144Z 2112/2212 06010KT P6SM VCSH FEW018 SCT020 SCT030
      TEMPO 2114/2116 06015G25KT 4SM +SHRA BKN020 BKN035
     FM211600 06017KT P6SM VCSH SCT018 SCT025 SCT040
     FM212300 05010KT P6SM VCSH SCT018 SCT030=

USA.gov is the U.S. government's official web portal to all federal, state and local government web resources and services.